sensor_id;sensor_type;location;lat;lon;timestamp;pressure;altitude;pressure_sealevel;temperature;humidity
71643;BME280;59438;45.014;39.006;2023-06-19T00:02:17;100637.25;;;20.85;75.60
71643;BME280;59438;45.014;39.006;2023-06-19T00:04:45;100637.25;;;20.85;75.31
71643;BME280;59438;45.014;39.006;2023-06-19T00:07:11;100635.59;;;20.84;74.91
71643;BME280;59438;45.014;39.006;2023-06-19T00:09:37;100643.72;;;20.82;74.98
71643;BME280;59438;45.014;39.006;2023-06-19T00:12:04;100641.88;;;20.83;74.86
71643;BME280;59438;45.014;39.006;2023-06-19T00:14:31;100632.03;;;20.83;74.89
71643;BME280;59438;45.014;39.006;2023-06-19T00:16:57;100634.88;;;20.82;75.04
71643;BME280;59438;45.014;39.006;2023-06-19T00:19:24;100637.66;;;20.80;74.95
71643;BME280;59438;45.014;39.006;2023-06-19T00:21:52;100635.22;;;20.77;74.94
71643;BME280;59438;45.014;39.006;2023-06-19T00:24:18;100635.34;;;20.76;74.92
71643;BME280;59438;45.014;39.006;2023-06-19T00:26:45;100633.75;;;20.73;74.74
71643;BME280;59438;45.014;39.006;2023-06-19T00:29:11;100641.91;;;20.71;74.85
71643;BME280;59438;45.014;39.006;2023-06-19T00:31:38;100643.00;;;20.69;74.94
71643;BME280;59438;45.014;39.006;2023-06-19T00:34:04;100649.31;;;20.68;74.93
71643;BME280;59438;45.014;39.006;2023-06-19T00:36:30;100651.25;;;20.66;75.00
71643;BME280;59438;45.014;39.006;2023-06-19T00:38:58;100648.69;;;20.64;75.07
71643;BME280;59438;45.014;39.006;2023-06-19T00:41:26;100646.16;;;20.63;75.03
71643;BME280;59438;45.014;39.006;2023-06-19T00:43:53;100650.91;;;20.59;74.99
71643;BME280;59438;45.014;39.006;2023-06-19T00:46:20;100647.47;;;20.57;74.76
71643;BME280;59438;45.014;39.006;2023-06-19T00:48:46;100650.38;;;20.54;74.92
71643;BME280;59438;45.014;39.006;2023-06-19T00:51:13;100648.94;;;20.50;75.19
71643;BME280;59438;45.014;39.006;2023-06-19T00:53:39;100648.19;;;20.48;75.33
71643;BME280;59438;45.014;39.006;2023-06-19T00:56:07;100651.25;;;20.43;75.48
71643;BME280;59438;45.014;39.006;2023-06-19T00:58:33;100657.69;;;20.41;75.37
71643;BME280;59438;45.014;39.006;2023-06-19T01:01:00;100658.88;;;20.37;75.64
71643;BME280;59438;45.014;39.006;2023-06-19T01:03:26;100661.06;;;20.31;75.93
71643;BME280;59438;45.014;39.006;2023-06-19T01:05:54;100657.78;;;20.28;76.29
71643;BME280;59438;45.014;39.006;2023-06-19T01:08:41;100662.25;;;20.27;76.71
71643;BME280;59438;45.014;39.006;2023-06-19T01:11:11;100661.53;;;20.25;76.19
71643;BME280;59438;45.014;39.006;2023-06-19T01:13:44;100666.25;;;20.22;76.42
71643;BME280;59438;45.014;39.006;2023-06-19T01:16:11;100674.41;;;20.20;76.14
71643;BME280;59438;45.014;39.006;2023-06-19T01:18:38;100671.00;;;20.18;76.03
71643;BME280;59438;45.014;39.006;2023-06-19T01:21:10;100673.06;;;20.15;76.58
71643;BME280;59438;45.014;39.006;2023-06-19T01:23:38;100671.69;;;20.09;76.31
71643;BME280;59438;45.014;39.006;2023-06-19T01:26:05;100682.72;;;20.04;76.37
71643;BME280;59438;45.014;39.006;2023-06-19T01:28:31;100684.78;;;20.01;76.48
71643;BME280;59438;45.014;39.006;2023-06-19T01:31:00;100688.66;;;19.97;76.94
71643;BME280;59438;45.014;39.006;2023-06-19T01:33:29;100691.56;;;19.93;76.82
71643;BME280;59438;45.014;39.006;2023-06-19T01:35:57;100690.94;;;19.90;76.92
71643;BME280;59438;45.014;39.006;2023-06-19T01:38:25;100695.53;;;19.88;77.05
71643;BME280;59438;45.014;39.006;2023-06-19T01:40:55;100690.19;;;19.88;76.99
71643;BME280;59438;45.014;39.006;2023-06-19T01:43:23;100690.31;;;19.86;77.07
71643;BME280;59438;45.014;39.006;2023-06-19T01:45:51;100691.41;;;19.84;76.95
71643;BME280;59438;45.014;39.006;2023-06-19T01:48:17;100694.28;;;19.81;76.73
71643;BME280;59438;45.014;39.006;2023-06-19T01:50:45;100693.56;;;19.79;77.14
71643;BME280;59438;45.014;39.006;2023-06-19T01:53:11;100708.94;;;19.75;77.15
71643;BME280;59438;45.014;39.006;2023-06-19T01:55:38;100701.06;;;19.73;77.24
71643;BME280;59438;45.014;39.006;2023-06-19T01:58:06;100701.06;;;19.73;77.42
71643;BME280;59438;45.014;39.006;2023-06-19T02:00:33;100694.75;;;19.75;77.26
71643;BME280;59438;45.014;39.006;2023-06-19T02:02:59;100699.97;;;19.76;77.21
71643;BME280;59438;45.014;39.006;2023-06-19T02:05:25;100710.63;;;19.76;77.01
71643;BME280;59438;45.014;39.006;2023-06-19T02:07:52;100710.63;;;19.76;77.20
71643;BME280;59438;45.014;39.006;2023-06-19T02:10:18;100702.63;;;19.76;77.39
71643;BME280;59438;45.014;39.006;2023-06-19T02:12:45;100701.78;;;19.76;77.26
71643;BME280;59438;45.014;39.006;2023-06-19T02:15:12;100712.56;;;19.74;77.56
71643;BME280;59438;45.014;39.006;2023-06-19T02:17:39;100713.41;;;19.75;77.39
71643;BME280;59438;45.014;39.006;2023-06-19T02:20:06;100710.63;;;19.76;77.44
71643;BME280;59438;45.014;39.006;2023-06-19T02:22:33;100708.94;;;19.75;77.25
71643;BME280;59438;45.014;39.006;2023-06-19T02:24:59;100717.78;;;19.76;77.48
71643;BME280;59438;45.014;39.006;2023-06-19T02:27:25;100706.03;;;19.78;77.61
71643;BME280;59438;45.014;39.006;2023-06-19T02:29:52;100712.09;;;19.80;77.74
71643;BME280;59438;45.014;39.006;2023-06-19T02:32:20;100708.25;;;19.84;77.76
71643;BME280;59438;45.014;39.006;2023-06-19T02:34:46;100708.88;;;19.88;77.48
71643;BME280;59438;45.014;39.006;2023-06-19T02:37:12;100705.09;;;19.90;77.67
71643;BME280;59438;45.014;39.006;2023-06-19T02:39:39;100712.00;;;19.93;77.47
71643;BME280;59438;45.014;39.006;2023-06-19T02:42:06;100716.28;;;19.96;77.46
71643;BME280;59438;45.014;39.006;2023-06-19T02:44:32;100710.69;;;19.99;77.56
71643;BME280;59438;45.014;39.006;2023-06-19T02:46:59;100706.00;;;20.02;77.68
71643;BME280;59438;45.014;39.006;2023-06-19T02:49:27;100710.22;;;20.05;78.10
71643;BME280;59438;45.014;39.006;2023-06-19T02:51:53;100705.63;;;20.07;77.79
71643;BME280;59438;45.014;39.006;2023-06-19T02:54:20;100705.41;;;20.10;77.95
71643;BME280;59438;45.014;39.006;2023-06-19T02:56:46;100702.38;;;20.15;77.80
71643;BME280;59438;45.014;39.006;2023-06-19T02:59:12;100695.00;;;20.18;77.83
71643;BME280;59438;45.014;39.006;2023-06-19T03:01:39;100691.84;;;20.24;77.82
71643;BME280;59438;45.014;39.006;2023-06-19T03:04:05;100693.31;;;20.28;77.78
71643;BME280;59438;45.014;39.006;2023-06-19T03:06:33;100694.63;;;20.34;77.86
71643;BME280;59438;45.014;39.006;2023-06-19T03:08:59;100695.97;;;20.40;77.60
71643;BME280;59438;45.014;39.006;2023-06-19T03:11:26;100690.28;;;20.44;77.60
71643;BME280;59438;45.014;39.006;2023-06-19T03:13:53;100691.63;;;20.50;77.55
71643;BME280;59438;45.014;39.006;2023-06-19T03:16:20;100689.31;;;20.57;77.50
71643;BME280;59438;45.014;39.006;2023-06-19T03:18:47;100688.00;;;20.62;77.42
71643;BME280;59438;45.014;39.006;2023-06-19T03:21:14;100690.31;;;20.67;77.57
71643;BME280;59438;45.014;39.006;2023-06-19T03:23:42;100695.16;;;20.73;77.67
71643;BME280;59438;45.014;39.006;2023-06-19T03:26:09;100687.75;;;20.77;77.05
71643;BME280;59438;45.014;39.006;2023-06-19T03:28:35;100689.94;;;20.83;77.15
71643;BME280;59438;45.014;39.006;2023-06-19T03:31:02;100682.41;;;20.88;77.00
71643;BME280;59438;45.014;39.006;2023-06-19T03:33:28;100698.91;;;20.93;77.09
71643;BME280;59438;45.014;39.006;2023-06-19T03:35:55;100689.94;;;20.94;76.79
71643;BME280;59438;45.014;39.006;2023-06-19T03:38:21;100693.06;;;20.99;76.93
71643;BME280;59438;45.014;39.006;2023-06-19T03:40:49;100690.28;;;21.01;76.97
71643;BME280;59438;45.014;39.006;2023-06-19T03:43:15;100693.28;;;21.07;76.72
71643;BME280;59438;45.014;39.006;2023-06-19T03:45:41;100692.78;;;21.13;76.71
71643;BME280;59438;45.014;39.006;2023-06-19T03:48:08;100693.13;;;21.20;76.57
71643;BME280;59438;45.014;39.006;2023-06-19T03:50:34;100700.63;;;21.26;76.44
71643;BME280;59438;45.014;39.006;2023-06-19T03:53:00;100699.16;;;21.33;76.36
71643;BME280;59438;45.014;39.006;2023-06-19T03:55:27;100695.00;;;21.41;76.30
71643;BME280;59438;45.014;39.006;2023-06-19T03:57:55;100696.22;;;21.48;76.21
71643;BME280;59438;45.014;39.006;2023-06-19T04:00:21;100699.25;;;21.55;75.88
71643;BME280;59438;45.014;39.006;2023-06-19T04:02:47;100699.56;;;21.61;75.92
71643;BME280;59438;45.014;39.006;2023-06-19T04:05:14;100708.78;;;21.68;75.74
71643;BME280;59438;45.014;39.006;2023-06-19T04:07:40;100697.44;;;21.76;75.59
71643;BME280;59438;45.014;39.006;2023-06-19T04:10:07;100698.63;;;21.83;75.43
71643;BME280;59438;45.014;39.006;2023-06-19T04:12:34;100699.78;;;21.90;75.20
71643;BME280;59438;45.014;39.006;2023-06-19T04:15:02;100699.13;;;21.98;75.33
71643;BME280;59438;45.014;39.006;2023-06-19T04:17:30;100697.78;;;22.04;75.01
71643;BME280;59438;45.014;39.006;2023-06-19T04:19:56;100703.44;;;22.10;74.69
71643;BME280;59438;45.014;39.006;2023-06-19T04:22:23;100708.25;;;22.17;74.48
71643;BME280;59438;45.014;39.006;2023-06-19T04:24:49;100706.78;;;22.24;74.33
71643;BME280;59438;45.014;39.006;2023-06-19T04:27:15;100701.75;;;22.30;74.30
71643;BME280;59438;45.014;39.006;2023-06-19T04:29:42;100702.78;;;22.39;74.23
71643;BME280;59438;45.014;39.006;2023-06-19T04:32:10;100701.00;;;22.49;74.41
71643;BME280;59438;45.014;39.006;2023-06-19T04:34:36;100698.38;;;22.59;73.86
71643;BME280;59438;45.014;39.006;2023-06-19T04:37:05;100706.56;;;22.67;73.46
71643;BME280;59438;45.014;39.006;2023-06-19T04:39:32;100710.25;;;22.76;73.13
71643;BME280;59438;45.014;39.006;2023-06-19T04:41:58;100697.88;;;22.85;72.66
71643;BME280;59438;45.014;39.006;2023-06-19T04:44:24;100715.81;;;22.94;72.80
71643;BME280;59438;45.014;39.006;2023-06-19T04:46:51;100711.38;;;23.04;72.64
71643;BME280;59438;45.014;39.006;2023-06-19T04:49:18;100717.72;;;23.13;72.41
71643;BME280;59438;45.014;39.006;2023-06-19T04:51:45;100723.09;;;23.23;72.12
71643;BME280;59438;45.014;39.006;2023-06-19T04:54:11;100722.25;;;23.32;72.03
71643;BME280;59438;45.014;39.006;2023-06-19T04:56:39;100724.84;;;23.43;71.38
71643;BME280;59438;45.014;39.006;2023-06-19T04:59:07;100716.50;;;23.56;71.28
71643;BME280;59438;45.014;39.006;2023-06-19T05:01:33;100724.25;;;23.69;71.23
71643;BME280;59438;45.014;39.006;2023-06-19T05:04:00;100722.16;;;23.82;70.75
71643;BME280;59438;45.014;39.006;2023-06-19T05:06:27;100727.38;;;23.93;70.46
71643;BME280;59438;45.014;39.006;2023-06-19T05:08:54;100728.50;;;24.01;69.98
71643;BME280;59438;45.014;39.006;2023-06-19T05:11:20;100729.63;;;24.08;70.09
71643;BME280;59438;45.014;39.006;2023-06-19T05:13:47;100733.28;;;24.17;69.69
71643;BME280;59438;45.014;39.006;2023-06-19T05:16:13;100725.91;;;24.28;69.62
71643;BME280;59438;45.014;39.006;2023-06-19T05:18:39;100731.09;;;24.40;68.82
71643;BME280;59438;45.014;39.006;2023-06-19T05:21:06;100730.66;;;24.54;67.71
71643;BME280;59438;45.014;39.006;2023-06-19T05:23:34;100722.97;;;24.69;66.41
71643;BME280;59438;45.014;39.006;2023-06-19T05:26:00;100723.88;;;24.87;67.47
71643;BME280;59438;45.014;39.006;2023-06-19T05:28:27;100726.91;;;25.02;66.06
71643;BME280;59438;45.014;39.006;2023-06-19T05:30:53;100726.81;;;25.22;66.39
71643;BME280;59438;45.014;39.006;2023-06-19T05:33:19;100734.19;;;25.38;66.00
71643;BME280;59438;45.014;39.006;2023-06-19T05:35:46;100724.59;;;25.53;64.96
71643;BME280;59438;45.014;39.006;2023-06-19T05:38:12;100715.63;;;25.62;64.10
71643;BME280;59438;45.014;39.006;2023-06-19T05:40:40;100727.69;;;25.76;63.27
71643;BME280;59438;45.014;39.006;2023-06-19T05:43:06;100731.53;;;25.91;63.26
71643;BME280;59438;45.014;39.006;2023-06-19T05:45:32;100725.78;;;26.12;62.63
71643;BME280;59438;45.014;39.006;2023-06-19T05:47:59;100735.13;;;26.26;62.09
71643;BME280;59438;45.014;39.006;2023-06-19T05:50:25;100726.97;;;26.36;61.80
71643;BME280;59438;45.014;39.006;2023-06-19T05:52:51;100735.72;;;26.38;61.02
71643;BME280;59438;45.014;39.006;2023-06-19T05:55:18;100730.16;;;26.40;60.88
71643;BME280;59438;45.014;39.006;2023-06-19T05:57:46;100732.53;;;26.43;59.87
71643;BME280;59438;45.014;39.006;2023-06-19T06:00:13;100730.38;;;26.46;60.17
71643;BME280;59438;45.014;39.006;2023-06-19T06:02:40;100735.81;;;26.54;60.54
71643;BME280;59438;45.014;39.006;2023-06-19T06:05:08;100728.50;;;26.65;60.02
71643;BME280;59438;45.014;39.006;2023-06-19T06:07:34;100730.72;;;26.78;60.71
71643;BME280;59438;45.014;39.006;2023-06-19T06:10:01;100727.91;;;26.87;60.10
71643;BME280;59438;45.014;39.006;2023-06-19T06:12:27;100722.88;;;26.92;59.27
71643;BME280;59438;45.014;39.006;2023-06-19T06:14:55;100722.06;;;27.00;59.09
71643;BME280;59438;45.014;39.006;2023-06-19T06:17:22;100721.94;;;27.10;58.46
71643;BME280;59438;45.014;39.006;2023-06-19T06:19:48;100723.78;;;27.18;58.61
71643;BME280;59438;45.014;39.006;2023-06-19T06:22:15;100724.31;;;27.21;58.24
71643;BME280;59438;45.014;39.006;2023-06-19T06:24:41;100711.38;;;27.25;57.49
71643;BME280;59438;45.014;39.006;2023-06-19T06:27:07;100724.19;;;27.31;57.46
71643;BME280;59438;45.014;39.006;2023-06-19T06:29:34;100713.41;;;27.39;57.86
71643;BME280;59438;45.014;39.006;2023-06-19T06:32:06;100714.78;;;27.51;56.51
71643;BME280;59438;45.014;39.006;2023-06-19T06:34:33;100719.31;;;27.59;56.72
71643;BME280;59438;45.014;39.006;2023-06-19T06:37:00;100708.03;;;27.64;57.47
71643;BME280;59438;45.014;39.006;2023-06-19T06:39:26;100714.97;;;27.66;56.41
71643;BME280;59438;45.014;39.006;2023-06-19T06:41:53;100713.94;;;27.67;56.66
71643;BME280;59438;45.014;39.006;2023-06-19T06:44:19;100707.53;;;27.68;56.46
71643;BME280;59438;45.014;39.006;2023-06-19T06:46:46;100711.41;;;27.74;56.16
71643;BME280;59438;45.014;39.006;2023-06-19T06:49:14;100711.75;;;27.79;55.19
71643;BME280;59438;45.014;39.006;2023-06-19T06:51:40;100707.19;;;27.80;55.56
71643;BME280;59438;45.014;39.006;2023-06-19T06:54:06;100703.66;;;27.79;55.61
71643;BME280;59438;45.014;39.006;2023-06-19T06:56:33;100711.59;;;27.81;55.44
71643;BME280;59438;45.014;39.006;2023-06-19T06:58:59;100710.41;;;27.83;55.87
71643;BME280;59438;45.014;39.006;2023-06-19T07:01:25;100703.13;;;27.84;54.50
71643;BME280;59438;45.014;39.006;2023-06-19T07:03:52;100712.09;;;27.84;54.62
71643;BME280;59438;45.014;39.006;2023-06-19T07:06:20;100710.09;;;27.86;53.70
71643;BME280;59438;45.014;39.006;2023-06-19T07:08:46;100715.81;;;27.91;54.50
71643;BME280;59438;45.014;39.006;2023-06-19T07:11:12;100715.31;;;27.96;54.03
71643;BME280;59438;45.014;39.006;2023-06-19T07:13:39;100712.94;;;28.01;54.01
71643;BME280;59438;45.014;39.006;2023-06-19T07:16:05;100717.81;;;28.06;53.58
71643;BME280;59438;45.014;39.006;2023-06-19T07:18:32;100708.22;;;28.11;53.93
71643;BME280;59438;45.014;39.006;2023-06-19T07:20:58;100711.91;;;28.19;53.66
71643;BME280;59438;45.014;39.006;2023-06-19T07:23:26;100715.44;;;28.27;52.88
71643;BME280;59438;45.014;39.006;2023-06-19T07:25:52;100709.81;;;28.37;53.34
71643;BME280;59438;45.014;39.006;2023-06-19T07:28:19;100710.47;;;28.47;53.52
71643;BME280;59438;45.014;39.006;2023-06-19T07:30:45;100714.38;;;28.53;52.67
71643;BME280;59438;45.014;39.006;2023-06-19T07:33:11;100711.81;;;28.60;52.92
71643;BME280;59438;45.014;39.006;2023-06-19T07:35:38;100716.03;;;28.70;52.46
71643;BME280;59438;45.014;39.006;2023-06-19T07:38:04;100708.22;;;28.76;52.93
71643;BME280;59438;45.014;39.006;2023-06-19T07:40:32;100716.66;;;28.81;51.67
71643;BME280;59438;45.014;39.006;2023-06-19T07:42:58;100709.69;;;28.86;52.74
71643;BME280;59438;45.014;39.006;2023-06-19T07:45:24;100707.97;;;28.93;52.41
71643;BME280;59438;45.014;39.006;2023-06-19T07:47:54;100717.22;;;28.99;52.46
71643;BME280;59438;45.014;39.006;2023-06-19T07:50:20;100720.91;;;29.06;51.82
71643;BME280;59438;45.014;39.006;2023-06-19T07:52:47;100715.31;;;29.08;51.80
71643;BME280;59438;45.014;39.006;2023-06-19T07:55:13;100716.16;;;29.08;51.66
71643;BME280;59438;45.014;39.006;2023-06-19T07:57:41;100717.81;;;29.09;50.96
71643;BME280;59438;45.014;39.006;2023-06-19T08:00:09;100711.75;;;29.16;51.33
71643;BME280;59438;45.014;39.006;2023-06-19T08:02:35;100712.72;;;29.23;50.24
71643;BME280;59438;45.014;39.006;2023-06-19T08:05:02;100709.84;;;29.24;51.15
71643;BME280;59438;45.014;39.006;2023-06-19T08:07:28;100708.66;;;29.27;51.55
71643;BME280;59438;45.014;39.006;2023-06-19T08:09:54;100715.56;;;29.29;51.34
71643;BME280;59438;45.014;39.006;2023-06-19T08:12:21;100711.84;;;29.30;50.01
71643;BME280;59438;45.014;39.006;2023-06-19T08:14:49;100706.59;;;29.29;49.48
71643;BME280;59438;45.014;39.006;2023-06-19T08:17:15;100711.47;;;29.33;49.94
71643;BME280;59438;45.014;39.006;2023-06-19T08:19:41;100710.25;;;29.36;49.26
71643;BME280;59438;45.014;39.006;2023-06-19T08:22:08;100706.88;;;29.34;48.58
71643;BME280;59438;45.014;39.006;2023-06-19T08:24:35;100706.88;;;29.34;48.23
71643;BME280;59438;45.014;39.006;2023-06-19T08:27:01;100706.72;;;29.36;47.63
71643;BME280;59438;45.014;39.006;2023-06-19T08:29:27;100711.97;;;29.37;47.46
71643;BME280;59438;45.014;39.006;2023-06-19T08:31:55;100707.03;;;29.41;46.76
71643;BME280;59438;45.014;39.006;2023-06-19T08:34:22;100700.91;;;29.47;47.63
71643;BME280;59438;45.014;39.006;2023-06-19T08:36:48;100700.53;;;29.50;47.48
71643;BME280;59438;45.014;39.006;2023-06-19T08:39:14;100703.06;;;29.51;47.23
71643;BME280;59438;45.014;39.006;2023-06-19T08:41:41;100695.22;;;29.57;47.21
71643;BME280;59438;45.014;39.006;2023-06-19T08:44:08;100694.03;;;29.59;46.68
71643;BME280;59438;45.014;39.006;2023-06-19T08:46:34;100698.72;;;29.65;46.77
71643;BME280;59438;45.014;39.006;2023-06-19T08:49:02;100702.22;;;29.74;45.69
71643;BME280;59438;45.014;39.006;2023-06-19T08:51:29;100686.09;;;29.81;46.55
71643;BME280;59438;45.014;39.006;2023-06-19T08:54:00;100683.97;;;29.91;46.91
71643;BME280;59438;45.014;39.006;2023-06-19T08:56:27;100684.38;;;30.03;46.11
71643;BME280;59438;45.014;39.006;2023-06-19T08:58:53;100680.75;;;30.10;46.32
71643;BME280;59438;45.014;39.006;2023-06-19T09:01:20;100677.28;;;30.17;45.65
71643;BME280;59438;45.014;39.006;2023-06-19T09:03:46;100677.09;;;30.18;45.96
71643;BME280;59438;45.014;39.006;2023-06-19T09:06:16;100677.38;;;30.23;45.34
71643;BME280;59438;45.014;39.006;2023-06-19T09:08:42;100672.09;;;30.30;46.57
71643;BME280;59438;45.014;39.006;2023-06-19T09:11:10;100668.06;;;30.41;46.06
71643;BME280;59438;45.014;39.006;2023-06-19T09:13:37;100665.53;;;30.54;46.42
71643;BME280;59438;45.014;39.006;2023-06-19T09:16:05;100653.53;;;30.63;45.26
71643;BME280;59438;45.014;39.006;2023-06-19T09:18:42;100651.94;;;30.69;44.67
71643;BME280;59438;45.014;39.006;2023-06-19T09:21:16;100659.91;;;30.70;42.84
71643;BME280;59438;45.014;39.006;2023-06-19T09:23:43;100667.84;;;30.57;44.63
71643;BME280;59438;45.014;39.006;2023-06-19T09:26:09;100655.81;;;30.45;44.31
71643;BME280;59438;45.014;39.006;2023-06-19T09:28:40;100665.72;;;30.38;42.79
71643;BME280;59438;45.014;39.006;2023-06-19T09:31:07;100661.31;;;30.22;44.11
71643;BME280;59438;45.014;39.006;2023-06-19T09:33:34;100660.25;;;30.08;44.39
71643;BME280;59438;45.014;39.006;2023-06-19T09:36:01;100657.19;;;29.96;43.00
71643;BME280;59438;45.014;39.006;2023-06-19T09:38:31;100647.94;;;29.90;42.02
71643;BME280;59438;45.014;39.006;2023-06-19T09:41:00;100646.97;;;29.83;40.91
71643;BME280;59438;45.014;39.006;2023-06-19T09:43:34;100653.44;;;29.82;41.41
71643;BME280;59438;45.014;39.006;2023-06-19T09:46:01;100644.28;;;29.83;42.39
71643;BME280;59438;45.014;39.006;2023-06-19T09:48:29;100634.09;;;29.85;42.38
71643;BME280;59438;45.014;39.006;2023-06-19T09:50:59;100644.41;;;29.90;41.32
71643;BME280;59438;45.014;39.006;2023-06-19T09:53:26;100630.94;;;29.97;43.27
71643;BME280;59438;45.014;39.006;2023-06-19T09:55:55;100635.63;;;30.03;41.79
71643;BME280;59438;45.014;39.006;2023-06-19T09:58:22;100633.19;;;30.08;42.72
71643;BME280;59438;45.014;39.006;2023-06-19T10:00:49;100626.19;;;30.13;42.75
71643;BME280;59438;45.014;39.006;2023-06-19T10:03:15;100625.91;;;30.23;42.60
71643;BME280;59438;45.014;39.006;2023-06-19T10:05:42;100628.88;;;30.28;42.05
71643;BME280;59438;45.014;39.006;2023-06-19T10:08:09;100620.59;;;30.30;41.95
71643;BME280;59438;45.014;39.006;2023-06-19T10:10:35;100621.44;;;30.30;42.17
71643;BME280;59438;45.014;39.006;2023-06-19T10:13:13;100620.69;;;30.37;40.54
71643;BME280;59438;45.014;39.006;2023-06-19T10:15:41;100619.47;;;30.39;41.55
71643;BME280;59438;45.014;39.006;2023-06-19T10:18:07;100610.13;;;30.42;41.78
71643;BME280;59438;45.014;39.006;2023-06-19T10:20:35;100612.44;;;30.45;41.27
71643;BME280;59438;45.014;39.006;2023-06-19T10:23:03;100601.78;;;30.43;40.93
71643;BME280;59438;45.014;39.006;2023-06-19T10:25:32;100603.84;;;30.41;41.11
71643;BME280;59438;45.014;39.006;2023-06-19T10:27:59;100592.00;;;30.42;41.61
71643;BME280;59438;45.014;39.006;2023-06-19T10:30:28;100594.13;;;30.47;41.46
71643;BME280;59438;45.014;39.006;2023-06-19T10:32:54;100578.34;;;30.50;41.70
71643;BME280;59438;45.014;39.006;2023-06-19T10:35:21;100570.03;;;30.52;41.59
71643;BME280;59438;45.014;39.006;2023-06-19T10:37:47;100575.06;;;30.55;41.51
71643;BME280;59438;45.014;39.006;2023-06-19T10:40:14;100585.34;;;30.45;41.33
71643;BME280;59438;45.014;39.006;2023-06-19T10:42:40;100571.16;;;30.28;41.21
71643;BME280;59438;45.014;39.006;2023-06-19T10:45:09;100566.59;;;30.13;41.62
71643;BME280;59438;45.014;39.006;2023-06-19T10:47:38;100566.69;;;30.05;41.48
71643;BME280;59438;45.014;39.006;2023-06-19T10:50:05;100577.19;;;30.08;42.41
71643;BME280;59438;45.014;39.006;2023-06-19T10:52:35;100558.56;;;30.20;42.19
71643;BME280;59438;45.014;39.006;2023-06-19T10:55:04;100570.25;;;30.36;41.04
71643;BME280;59438;45.014;39.006;2023-06-19T10:57:30;100576.47;;;30.51;41.41
71643;BME280;59438;45.014;39.006;2023-06-19T10:59:58;100571.13;;;30.58;41.58
71643;BME280;59438;45.014;39.006;2023-06-19T11:02:25;100565.16;;;30.62;40.78
71643;BME280;59438;45.014;39.006;2023-06-19T11:04:54;100569.69;;;30.62;39.73
71643;BME280;59438;45.014;39.006;2023-06-19T11:07:21;100571.69;;;30.53;40.03
71643;BME280;59438;45.014;39.006;2023-06-19T11:09:49;100555.94;;;30.42;40.52
71643;BME280;59438;45.014;39.006;2023-06-19T11:12:19;100568.56;;;30.35;40.02
71643;BME280;59438;45.014;39.006;2023-06-19T11:14:46;100567.63;;;30.27;40.25
71643;BME280;59438;45.014;39.006;2023-06-19T11:17:13;100565.47;;;30.23;41.16
71643;BME280;59438;45.014;39.006;2023-06-19T11:19:39;100562.50;;;30.18;41.29
71643;BME280;59438;45.014;39.006;2023-06-19T11:22:07;100571.53;;;30.10;41.23
71643;BME280;59438;45.014;39.006;2023-06-19T11:24:34;100570.72;;;29.95;42.25
71643;BME280;59438;45.014;39.006;2023-06-19T11:27:00;100579.38;;;29.75;41.72
71643;BME280;59438;45.014;39.006;2023-06-19T11:29:29;100573.19;;;29.51;41.12
71643;BME280;59438;45.014;39.006;2023-06-19T11:32:05;100572.84;;;29.31;40.92
71643;BME280;59438;45.014;39.006;2023-06-19T11:34:33;100566.09;;;29.12;41.77
71643;BME280;59438;45.014;39.006;2023-06-19T11:36:59;100563.97;;;29.00;42.49
71643;BME280;59438;45.014;39.006;2023-06-19T11:39:28;100559.81;;;28.89;41.47
71643;BME280;59438;45.014;39.006;2023-06-19T11:41:54;100568.47;;;28.84;42.20
71643;BME280;59438;45.014;39.006;2023-06-19T11:44:21;100569.84;;;28.80;42.78
71643;BME280;59438;45.014;39.006;2023-06-19T11:46:47;100567.84;;;28.74;42.24
71643;BME280;59438;45.014;39.006;2023-06-19T11:49:14;100567.72;;;28.67;42.52
71643;BME280;59438;45.014;39.006;2023-06-19T11:51:41;100568.63;;;28.60;43.08
71643;BME280;59438;45.014;39.006;2023-06-19T11:54:09;100554.47;;;28.49;43.04
71643;BME280;59438;45.014;39.006;2023-06-19T11:56:38;100564.44;;;28.49;43.72
71643;BME280;59438;45.014;39.006;2023-06-19T11:59:05;100563.75;;;28.47;44.48
71643;BME280;59438;45.014;39.006;2023-06-19T12:01:31;100555.16;;;28.43;44.41
71643;BME280;59438;45.014;39.006;2023-06-19T12:03:58;100546.22;;;28.43;43.23
71643;BME280;59438;45.014;39.006;2023-06-19T12:06:25;100538.50;;;28.40;43.98
71643;BME280;59438;45.014;39.006;2023-06-19T12:08:51;100540.53;;;28.38;43.35
71643;BME280;59438;45.014;39.006;2023-06-19T12:11:17;100538.00;;;28.36;43.18
71643;BME280;59438;45.014;39.006;2023-06-19T12:13:45;100537.16;;;28.36;41.35
71643;BME280;59438;45.014;39.006;2023-06-19T12:16:13;100546.44;;;28.33;42.32
71643;BME280;59438;45.014;39.006;2023-06-19T12:18:40;100555.56;;;28.32;42.53
71643;BME280;59438;45.014;39.006;2023-06-19T12:21:06;100571.78;;;28.32;42.41
71643;BME280;59438;45.014;39.006;2023-06-19T12:23:33;100560.97;;;28.32;42.80
71643;BME280;59438;45.014;39.006;2023-06-19T12:25:59;100566.38;;;28.32;43.01
71643;BME280;59438;45.014;39.006;2023-06-19T12:28:26;100568.41;;;28.30;42.89
71643;BME280;59438;45.014;39.006;2023-06-19T12:30:54;100574.16;;;28.27;42.22
71643;BME280;59438;45.014;39.006;2023-06-19T12:33:20;100579.75;;;28.25;42.84
71643;BME280;59438;45.014;39.006;2023-06-19T12:35:47;100588.84;;;28.24;42.61
71643;BME280;59438;45.014;39.006;2023-06-19T12:38:13;100591.91;;;28.21;42.84
71643;BME280;59438;45.014;39.006;2023-06-19T12:40:40;100586.84;;;28.18;43.01